Time;durP1;ratioP1;P1;durP2;ratioP2;P2;SDS_P1;SDS_P2;PMS_P1;PMS_P2;Temp;Humidity;BMP_temperature;BMP_pressure;BME280_temperature;BME280_humidity;BME280_pressure;Samples;Min_cycle;Max_cycle;Signal;HPM_P1;HPM_P2
2024/03/12 00:02:20;;;;;;;8.35;2.05;;;15.00;42.50;;;;;;5012314;28;20150;-64
2024/03/12 00:04:49;;;;;;;4.03;2.22;;;15.00;42.60;;;;;;5005481;28;20392;-65
2024/03/12 00:07:22;;;;;;;30.33;10.10;;;15.00;42.60;;;;;;5006946;28;20076;-65
2024/03/12 00:09:52;;;;;;;43.28;16.50;;;15.10;42.60;;;;;;5006459;28;20064;-64
2024/03/12 00:12:22;;;;;;;2.28;1.90;;;15.10;42.60;;;;;;5012167;28;20895;-62
2024/03/12 00:14:51;;;;;;;4.32;2.28;;;15.10;42.60;;;;;;5004189;28;20761;-62
2024/03/12 00:17:20;;;;;;;39.00;18.38;;;15.20;42.60;;;;;;5009642;28;20058;-64
2024/03/12 00:19:51;;;;;;;5.60;2.40;;;15.20;42.60;;;;;;5012229;28;20479;-64
2024/03/12 00:22:22;;;;;;;4.28;1.90;;;15.20;42.70;;;;;;5004259;28;20056;-64
2024/03/12 00:24:53;;;;;;;3.28;1.88;;;15.20;42.50;;;;;;5012545;28;20115;-62
2024/03/12 00:27:22;;;;;;;4.07;2.63;;;15.10;42.60;;;;;;5021960;28;20139;-62
2024/03/12 00:29:52;;;;;;;3.65;2.00;;;15.10;42.70;;;;;;5021259;28;20084;-66
2024/03/12 00:32:20;;;;;;;3.35;1.92;;;15.10;42.70;;;;;;5034239;28;20061;-63
2024/03/12 00:34:50;;;;;;;6.28;3.33;;;15.10;42.70;;;;;;5033227;28;20053;-64
2024/03/12 00:37:20;;;;;;;11.38;3.38;;;15.00;42.80;;;;;;5022411;28;20059;-66
2024/03/12 00:39:49;;;;;;;6.93;3.75;;;15.00;42.90;;;;;;5022430;28;20069;-65
2024/03/12 00:42:19;;;;;;;6.47;2.85;;;14.90;43.00;;;;;;5021824;28;20701;-64
2024/03/12 00:44:48;;;;;;;7.53;2.63;;;14.90;43.10;;;;;;5025482;28;20182;-62
2024/03/12 00:47:16;;;;;;;4.22;2.42;;;14.90;43.00;;;;;;5022552;28;20144;-63
2024/03/12 00:49:46;;;;;;;3.42;2.08;;;14.90;43.10;;;;;;5015020;28;20945;-64
2024/03/12 00:52:14;;;;;;;3.67;2.35;;;14.80;43.20;;;;;;5037850;28;20061;-63
2024/03/12 00:54:42;;;;;;;2.80;1.80;;;14.80;43.20;;;;;;5010565;28;20057;-63
2024/03/12 00:57:11;;;;;;;6.03;2.53;;;14.80;43.40;;;;;;5030872;28;20132;-64
2024/03/12 00:59:41;;;;;;;5.03;2.40;;;14.70;43.30;;;;;;5028529;28;20053;-64
2024/03/12 01:02:11;;;;;;;2.70;2.20;;;14.70;43.50;;;;;;5034835;28;20046;-66
2024/03/12 01:04:39;;;;;;;6.43;3.53;;;14.70;43.50;;;;;;5001854;28;20049;-63
2024/03/12 01:07:08;;;;;;;2.45;1.75;;;14.60;43.50;;;;;;5013203;28;20053;-65
2024/03/12 01:09:39;;;;;;;15.90;4.90;;;14.60;43.60;;;;;;5006593;28;20068;-66
2024/03/12 01:12:09;;;;;;;9.57;4.68;;;14.50;43.80;;;;;;5018683;28;20136;-64
2024/03/12 01:14:38;;;;;;;2.92;1.73;;;14.50;43.80;;;;;;5015340;28;20053;-64
2024/03/12 01:17:07;;;;;;;14.15;6.47;;;14.50;43.90;;;;;;5021456;28;20069;-60
2024/03/12 01:19:36;;;;;;;29.02;10.38;;;14.50;44.00;;;;;;5022129;28;20539;-61
2024/03/12 01:22:05;;;;;;;14.20;6.50;;;14.50;44.00;;;;;;5018452;28;20046;-62
2024/03/12 01:24:33;;;;;;;2.08;1.45;;;14.50;44.00;;;;;;5021862;28;20057;-64
2024/03/12 01:27:03;;;;;;;1.60;1.50;;;14.50;44.10;;;;;;5027184;28;20056;-64
2024/03/12 01:29:33;;;;;;;3.08;2.10;;;14.50;44.00;;;;;;5025681;28;20778;-62
2024/03/12 01:32:01;;;;;;;2.38;1.38;;;14.50;44.00;;;;;;5021328;28;20460;-62
2024/03/12 01:34:33;;;;;;;4.40;1.73;;;14.50;44.00;;;;;;5017501;28;20111;-65
2024/03/12 01:37:05;;;;;;;3.42;2.58;;;14.50;44.20;;;;;;5024359;28;20056;-65
2024/03/12 01:39:38;;;;;;;2.95;1.15;;;14.60;44.10;;;;;;5017250;28;20065;-64
2024/03/12 01:42:07;;;;;;;1.27;1.17;;;14.60;44.20;;;;;;5018706;28;20050;-62
2024/03/12 01:44:37;;;;;;;3.67;1.35;;;14.70;44.80;;;;;;5015113;28;20421;-67
2024/03/12 01:47:05;;;;;;;1.63;1.52;;;14.70;44.20;;;;;;5037525;28;20060;-65
2024/03/12 01:49:36;;;;;;;2.67;1.65;;;14.70;44.10;;;;;;5022067;28;20056;-66
2024/03/12 01:52:05;;;;;;;3.03;2.03;;;14.60;44.20;;;;;;5019881;28;20076;-66
2024/03/12 01:54:33;;;;;;;3.00;2.15;;;14.60;44.40;;;;;;5014449;28;20061;-61
2024/03/12 01:57:01;;;;;;;4.07;1.95;;;14.50;44.60;;;;;;5018522;28;20563;-62
2024/03/12 01:59:29;;;;;;;2.15;1.50;;;14.40;44.50;;;;;;5023128;28;21071;-63
2024/03/12 02:02:00;;;;;;;6.53;2.30;;;14.40;44.70;;;;;;5016422;28;20064;-62
2024/03/12 02:04:29;;;;;;;2.45;1.58;;;14.30;44.80;;;;;;5015303;28;20071;-63
2024/03/12 02:07:00;;;;;;;4.07;1.88;;;14.30;45.00;;;;;;5016399;28;20042;-62
2024/03/12 02:09:28;;;;;;;2.75;1.70;;;14.30;45.70;;;;;;5022159;28;20147;-64
2024/03/12 02:11:57;;;;;;;2.65;1.52;;;14.30;45.00;;;;;;5023039;28;20152;-64
2024/03/12 02:14:25;;;;;;;1.98;1.75;;;14.20;46.20;;;;;;5021692;28;20057;-59
2024/03/12 02:16:53;;;;;;;1.88;1.60;;;14.20;45.20;;;;;;5004526;28;20053;-61
2024/03/12 02:19:22;;;;;;;8.02;1.95;;;14.00;45.30;;;;;;5017556;28;20504;-65
2024/03/12 02:21:50;;;;;;;1.30;1.20;;;14.00;45.50;;;;;;5020282;28;20060;-64
2024/03/12 02:24:19;;;;;;;11.48;4.45;;;13.90;45.80;;;;;;5010975;28;20049;-65
2024/03/12 02:26:48;;;;;;;8.75;3.80;;;13.90;45.90;;;;;;5007496;28;20778;-61
2024/03/12 02:29:16;;;;;;;3.70;2.00;;;13.80;45.90;;;;;;5017568;28;20053;-61
2024/03/12 02:31:44;;;;;;;1.95;1.58;;;13.80;46.00;;;;;;5026162;28;20057;-62
2024/03/12 02:34:12;;;;;;;7.05;3.90;;;13.80;46.20;;;;;;5014777;28;20061;-64
2024/03/12 02:36:41;;;;;;;7.78;3.65;;;13.80;46.10;;;;;;5004454;28;20068;-63
2024/03/12 02:39:10;;;;;;;1.67;1.50;;;13.80;46.20;;;;;;5017565;28;20487;-66
2024/03/12 02:41:40;;;;;;;2.38;1.50;;;13.80;46.20;;;;;;5022217;28;20064;-65
2024/03/12 02:44:08;;;;;;;3.30;1.90;;;13.80;46.20;;;;;;5019228;28;20056;-65
2024/03/12 02:46:36;;;;;;;3.35;1.73;;;13.80;46.20;;;;;;5010896;28;20065;-61
2024/03/12 02:49:07;;;;;;;4.75;2.72;;;13.90;46.30;;;;;;5018803;28;20049;-65
2024/03/12 02:51:36;;;;;;;13.75;3.00;;;13.90;46.30;;;;;;5022940;28;20057;-61
2024/03/12 02:54:05;;;;;;;2.97;2.10;;;14.00;46.30;;;;;;5017385;28;20124;-67
2024/03/12 02:56:33;;;;;;;2.22;1.65;;;14.00;46.30;;;;;;5001490;28;20072;-64
2024/03/12 02:59:03;;;;;;;2.50;1.42;;;14.00;46.30;;;;;;5017651;28;20057;-63
2024/03/12 03:01:31;;;;;;;3.88;2.28;;;14.10;46.30;;;;;;5014809;28;20057;-61
2024/03/12 03:03:59;;;;;;;1.95;1.63;;;14.10;46.30;;;;;;5014205;28;20628;-65
2024/03/12 03:06:28;;;;;;;2.22;1.90;;;14.10;46.30;;;;;;5012681;28;20049;-60
2024/03/12 03:08:58;;;;;;;23.17;8.55;;;14.20;46.30;;;;;;5016593;28;20103;-62
2024/03/12 03:11:26;;;;;;;9.75;4.80;;;14.30;46.30;;;;;;5019837;28;20136;-61
2024/03/12 03:13:55;;;;;;;3.25;2.55;;;14.30;46.30;;;;;;5022759;28;20045;-65
2024/03/12 03:16:27;;;;;;;4.15;2.55;;;14.40;46.30;;;;;;5019912;28;20065;-66
2024/03/12 03:18:57;;;;;;;5.47;2.72;;;14.40;46.30;;;;;;5013308;28;20089;-66
2024/03/12 03:21:25;;;;;;;1.67;1.50;;;14.40;46.20;;;;;;5019516;28;20539;-64
2024/03/12 03:23:53;;;;;;;6.82;3.50;;;14.50;46.20;;;;;;5018115;28;20060;-64
2024/03/12 03:26:22;;;;;;;2.97;2.35;;;14.50;46.20;;;;;;5028385;28;20058;-63
2024/03/12 03:28:50;;;;;;;3.33;2.08;;;14.50;46.20;;;;;;5005510;28;20056;-64
2024/03/12 03:31:18;;;;;;;5.50;2.35;;;14.50;46.30;;;;;;5008825;28;20195;-65
2024/03/12 03:33:48;;;;;;;2.65;1.98;;;14.60;46.40;;;;;;5019166;28;20057;-67
2024/03/12 03:36:16;;;;;;;3.35;2.05;;;14.50;46.30;;;;;;5019959;28;20057;-64
2024/03/12 03:38:45;;;;;;;3.55;2.75;;;14.50;46.30;;;;;;5013362;28;20155;-61
2024/03/12 03:41:13;;;;;;;4.72;2.47;;;14.50;46.40;;;;;;5014583;28;20046;-64
2024/03/12 03:43:42;;;;;;;10.35;5.07;;;14.50;46.40;;;;;;5018627;28;20732;-60
2024/03/12 03:46:11;;;;;;;3.58;1.90;;;14.50;46.50;;;;;;5016301;28;20144;-61
2024/03/12 03:48:39;;;;;;;9.93;3.97;;;14.50;46.60;;;;;;5012438;28;20504;-65
2024/03/12 03:51:10;;;;;;;7.80;2.58;;;14.50;47.20;;;;;;5018421;28;20415;-64
2024/03/12 03:53:40;;;;;;;5.22;2.55;;;14.40;46.70;;;;;;5020652;28;20061;-65
2024/03/12 03:56:15;;;;;;;8.82;2.88;;;14.50;47.40;;;;;;5021484;28;20522;-61
2024/03/12 03:58:44;;;;;;;;;;;14.50;46.80;;;;;;5014655;28;20061;-62
2024/03/12 04:01:13;;;;;;;3.00;1.90;;;14.50;46.60;;;;;;5016553;28;19929;-60
2024/03/12 04:03:42;;;;;;;5.57;2.38;;;14.50;46.50;;;;;;5022782;28;20053;-64
2024/03/12 04:06:12;;;;;;;3.58;2.20;;;14.50;46.60;;;;;;5021370;28;20057;-61
2024/03/12 04:08:40;;;;;;;4.93;3.13;;;14.50;46.70;;;;;;5005698;28;20076;-64
2024/03/12 04:11:08;;;;;;;4.78;2.58;;;14.50;46.70;;;;;;5015835;28;20668;-61
2024/03/12 04:13:40;;;;;;;3.00;2.00;;;14.40;46.90;;;;;;5021692;28;20057;-63
2024/03/12 04:16:10;;;;;;;4.15;3.03;;;14.40;47.70;;;;;;5019905;28;20053;-61
2024/03/12 04:18:38;;;;;;;7.28;2.33;;;14.40;47.10;;;;;;5016307;28;20107;-62
2024/03/12 04:21:07;;;;;;;3.40;2.40;;;14.30;47.10;;;;;;5023319;28;20076;-62
2024/03/12 04:23:37;;;;;;;3.05;1.90;;;14.20;47.30;;;;;;5042744;28;20148;-66
2024/03/12 04:26:05;;;;;;;3.60;2.85;;;14.10;47.50;;;;;;5017949;28;20107;-67
2024/03/12 04:28:33;;;;;;;3.28;2.00;;;14.00;47.60;;;;;;5017576;28;20061;-65
2024/03/12 04:31:06;;;;;;;5.53;2.10;;;14.00;47.70;;;;;;5018684;28;20069;-64
2024/03/12 04:33:34;;;;;;;2.50;1.75;;;13.90;47.90;;;;;;5020489;28;20056;-63
2024/03/12 04:36:06;;;;;;;6.40;3.03;;;13.90;47.90;;;;;;5020305;28;20057;-61
2024/03/12 04:38:35;;;;;;;2.45;2.00;;;13.80;48.00;;;;;;5015370;28;20450;-65
2024/03/12 04:41:05;;;;;;;4.72;2.88;;;13.80;48.10;;;;;;5020545;28;20127;-65
2024/03/12 04:43:33;;;;;;;4.45;2.72;;;13.80;48.10;;;;;;5024107;28;20068;-61
2024/03/12 04:46:01;;;;;;;2.60;1.92;;;13.80;48.10;;;;;;5020210;28;20112;-63
2024/03/12 04:48:30;;;;;;;4.22;2.60;;;13.90;48.10;;;;;;5014596;28;20045;-64
2024/03/12 04:50:59;;;;;;;3.67;2.80;;;13.90;48.20;;;;;;5018753;28;20136;-66
2024/03/12 04:53:27;;;;;;;7.40;4.18;;;13.90;48.30;;;;;;5018628;28;20123;-63
2024/03/12 04:55:57;;;;;;;4.53;2.60;;;13.80;48.40;;;;;;5022559;28;20053;-66
2024/03/12 04:58:26;;;;;;;5.70;2.92;;;13.70;48.50;;;;;;5020518;28;20085;-65
2024/03/12 05:00:54;;;;;;;4.32;2.85;;;13.70;49.30;;;;;;5014956;28;20099;-65
2024/03/12 05:03:23;;;;;;;2.88;2.58;;;13.60;48.70;;;;;;5010959;28;20504;-63
2024/03/12 05:05:51;;;;;;;5.45;3.10;;;13.60;48.90;;;;;;5021087;28;20080;-61
2024/03/12 05:08:19;;;;;;;16.17;7.07;;;13.60;49.00;;;;;;5015740;28;20057;-63
2024/03/12 05:10:48;;;;;;;4.30;2.95;;;13.60;49.10;;;;;;5009622;28;20695;-64
2024/03/12 05:13:17;;;;;;;9.15;3.00;;;13.60;49.20;;;;;;5022393;28;20057;-67
2024/03/12 05:15:46;;;;;;;5.53;3.03;;;13.60;49.30;;;;;;5022402;28;20500;-66
2024/03/12 05:18:15;;;;;;;8.80;3.47;;;13.60;49.30;;;;;;5015978;28;20067;-63
2024/03/12 05:20:43;;;;;;;5.50;3.33;;;13.60;49.30;;;;;;5016959;28;20057;-66
2024/03/12 05:23:12;;;;;;;3.67;2.75;;;13.60;49.40;;;;;;5018770;28;20049;-63
2024/03/12 05:25:41;;;;;;;6.43;3.05;;;13.50;49.50;;;;;;5018376;28;20056;-66
2024/03/12 05:28:10;;;;;;;4.43;2.97;;;13.60;49.50;;;;;;5010148;28;20107;-63
2024/03/12 05:30:40;;;;;;;7.97;3.63;;;13.60;49.50;;;;;;5006518;28;20053;-61
2024/03/12 05:33:14;;;;;;;4.13;2.70;;;13.60;49.60;;;;;;5016286;28;20077;-66
2024/03/12 05:35:49;;;;;;;4.43;2.80;;;13.50;49.70;;;;;;5025819;28;20057;-63
2024/03/12 05:38:32;;;;;;;5.00;3.30;;;13.50;49.70;;;;;;5019282;28;20060;-65
2024/03/12 05:41:25;;;;;;;4.85;2.92;;;13.50;49.70;;;;;;5019171;28;20067;-67
2024/03/12 05:49:26;;;;;;;5.35;3.35;;;13.50;49.80;;;;;;5016178;28;20144;-64
2024/03/12 05:51:55;;;;;;;7.15;3.97;;;13.50;49.90;;;;;;5038390;28;20052;-62
2024/03/12 05:54:24;;;;;;;4.82;3.13;;;13.50;50.00;;;;;;5019578;28;20065;-62
2024/03/12 05:56:52;;;;;;;5.60;3.20;;;13.50;50.00;;;;;;5013408;28;21715;-67
2024/03/12 05:59:22;;;;;;;6.72;4.20;;;13.50;50.70;;;;;;5012494;28;20078;-64
2024/03/12 06:01:51;;;;;;;6.43;3.70;;;13.50;50.10;;;;;;5022523;28;20795;-59
2024/03/12 06:04:19;;;;;;;4.55;3.00;;;13.50;50.30;;;;;;5016805;28;20085;-61
2024/03/12 06:06:49;;;;;;;4.47;3.30;;;13.50;50.10;;;;;;5013792;28;20088;-60
2024/03/12 06:09:22;;;;;;;5.57;3.38;;;13.50;50.20;;;;;;5018581;28;20295;-61
2024/03/12 06:11:51;;;;;;;6.07;3.28;;;13.60;50.20;;;;;;5023762;28;20068;-64
2024/03/12 06:14:19;;;;;;;10.68;3.53;;;13.60;50.20;;;;;;5016279;28;20075;-61
2024/03/12 06:16:47;;;;;;;5.20;3.20;;;13.60;50.30;;;;;;5013936;28;20049;-60
2024/03/12 06:19:15;;;;;;;6.07;3.53;;;13.60;51.00;;;;;;5016131;28;20045;-64
2024/03/12 06:21:44;;;;;;;5.40;3.25;;;13.70;50.30;;;;;;5019702;28;20141;-60
2024/03/12 06:24:14;;;;;;;7.22;3.47;;;13.70;50.30;;;;;;5014826;28;20118;-61
2024/03/12 06:26:43;;;;;;;6.30;3.15;;;13.70;50.30;;;;;;5008331;28;20133;-61
2024/03/12 06:29:13;;;;;;;4.55;2.85;;;13.70;50.30;;;;;;5018213;28;20056;-62
2024/03/12 06:31:42;;;;;;;6.70;3.35;;;13.70;50.20;;;;;;5011693;28;20089;-61
2024/03/12 06:34:10;;;;;;;11.05;3.20;;;13.70;50.30;;;;;;5017575;28;20366;-63
2024/03/12 06:36:40;;;;;;;4.85;3.53;;;13.70;50.40;;;;;;5008565;28;20384;-61
2024/03/12 06:39:08;;;;;;;3.13;2.67;;;13.70;50.20;;;;;;5012836;28;20060;-59
2024/03/12 06:41:41;;;;;;;29.15;3.75;;;13.70;50.30;;;;;;4992324;28;20061;-63
2024/03/12 06:44:15;;;;;;;5.65;2.55;;;13.70;50.30;;;;;;5017241;28;20050;-59
2024/03/12 06:46:44;;;;;;;8.38;3.63;;;13.80;50.30;;;;;;5009906;28;20061;-60
2024/03/12 06:49:14;;;;;;;5.70;3.88;;;13.80;50.20;;;;;;5018666;28;20721;-61
2024/03/12 06:51:47;;;;;;;6.22;2.90;;;13.80;50.20;;;;;;5017650;28;20056;-58
2024/03/12 06:54:15;;;;;;;5.63;3.28;;;13.90;50.30;;;;;;5014550;28;20053;-60
2024/03/12 06:56:46;;;;;;;6.28;3.17;;;13.90;50.20;;;;;;5006078;28;20226;-62
2024/03/12 06:59:15;;;;;;;4.05;2.90;;;14.00;50.20;;;;;;5012997;28;20103;-58
2024/03/12 07:01:45;;;;;;;3.72;2.60;;;14.00;50.10;;;;;;5007976;28;20120;-59
2024/03/12 07:04:13;;;;;;;4.25;3.30;;;14.10;50.20;;;;;;5019755;28;20428;-58
2024/03/12 07:06:42;;;;;;;5.38;3.50;;;14.20;50.00;;;;;;5006144;28;20072;-59
2024/03/12 07:09:22;;;;;;;4.50;3.50;;;14.20;49.90;;;;;;5004235;28;20517;-60
2024/03/12 07:11:54;;;;;;;8.05;4.18;;;14.20;50.00;;;;;;5013380;28;20084;-61
2024/03/12 07:14:27;;;;;;;7.13;3.60;;;14.30;49.90;;;;;;5014547;28;20488;-59
2024/03/12 07:16:56;;;;;;;4.57;3.20;;;14.40;49.90;;;;;;5009586;28;20050;-59
2024/03/12 07:19:25;;;;;;;6.30;3.08;;;14.60;49.70;;;;;;5010803;28;20127;-59
2024/03/12 07:21:54;;;;;;;7.03;3.58;;;14.70;49.50;;;;;;5008551;28;20049;-61
2024/03/12 07:24:23;;;;;;;8.75;4.10;;;14.90;49.90;;;;;;5013992;28;20053;-59
2024/03/12 07:26:53;;;;;;;10.52;3.72;;;14.90;49.00;;;;;;5003404;28;20057;-61
2024/03/12 07:29:23;;;;;;;5.10;3.70;;;14.90;49.00;;;;;;5006302;28;20072;-60
2024/03/12 07:31:52;;;;;;;5.88;2.72;;;14.90;48.90;;;;;;5015149;28;20063;-58
2024/03/12 07:34:21;;;;;;;3.75;2.45;;;14.80;49.00;;;;;;5012766;28;20061;-56
2024/03/12 07:36:49;;;;;;;3.72;2.72;;;14.80;49.00;;;;;;5008421;28;20544;-62
2024/03/12 07:39:25;;;;;;;6.38;4.20;;;14.70;49.00;;;;;;5014820;28;20065;-64
2024/03/12 07:41:56;;;;;;;6.70;4.57;;;14.60;49.00;;;;;;5030609;28;20061;-62
2024/03/12 07:44:24;;;;;;;6.35;3.88;;;14.60;49.10;;;;;;5010971;28;20122;-60
2024/03/12 07:46:54;;;;;;;5.47;2.60;;;14.50;49.10;;;;;;5007271;28;21067;-57
2024/03/12 07:49:23;;;;;;;2.63;1.85;;;14.20;49.20;;;;;;5015988;28;20065;-59
2024/03/12 07:51:52;;;;;;;5.63;1.75;;;14.00;49.30;;;;;;5013393;28;20111;-59
2024/03/12 07:54:20;;;;;;;7.38;1.98;;;13.80;49.60;;;;;;5017425;28;20057;-61
2024/03/12 07:56:49;;;;;;;3.58;2.25;;;13.70;49.80;;;;;;5004502;28;20061;-61
2024/03/12 07:59:22;;;;;;;1.92;1.65;;;13.60;50.00;;;;;;5000639;28;20050;-58
2024/03/12 08:01:52;;;;;;;21.38;3.78;;;13.50;50.00;;;;;;5004136;28;20190;-58
2024/03/12 08:04:22;;;;;;;5.40;2.40;;;13.40;50.20;;;;;;5013077;28;20058;-59
2024/03/12 08:06:50;;;;;;;11.50;3.17;;;13.40;50.70;;;;;;5007016;28;21111;-58
2024/03/12 08:09:19;;;;;;;3.53;2.35;;;13.40;50.40;;;;;;5015043;28;20713;-57
2024/03/12 08:11:47;;;;;;;4.43;3.35;;;13.40;50.50;;;;;;5012961;28;20056;-58
2024/03/12 08:14:17;;;;;;;4.60;3.03;;;13.40;50.50;;;;;;5012921;28;20954;-55
2024/03/12 08:16:49;;;;;;;6.68;3.00;;;13.40;50.60;;;;;;5004338;28;20050;-59
2024/03/12 08:19:17;;;;;;;6.40;2.40;;;13.50;50.80;;;;;;5002720;28;20068;-59
2024/03/12 08:21:45;;;;;;;3.08;2.38;;;13.50;50.80;;;;;;5015278;28;20076;-62
2024/03/12 08:24:14;;;;;;;3.42;2.40;;;13.60;50.80;;;;;;5013774;28;20084;-60
2024/03/12 08:26:43;;;;;;;3.90;2.50;;;13.60;50.90;;;;;;5008762;28;20108;-62
2024/03/12 08:29:11;;;;;;;5.20;3.03;;;13.60;51.00;;;;;;5014975;28;20058;-60
2024/03/12 08:31:40;;;;;;;7.13;3.63;;;13.80;51.10;;;;;;5012884;28;20134;-61
2024/03/12 08:34:20;;;;;;;4.82;3.17;;;13.90;51.20;;;;;;5011527;28;20072;-60
2024/03/12 08:36:49;;;;;;;7.53;4.35;;;14.10;51.20;;;;;;5010098;28;20255;-61
2024/03/12 08:39:18;;;;;;;13.57;6.00;;;14.20;51.10;;;;;;5008121;28;20562;-61
2024/03/12 08:41:46;;;;;;;6.68;4.72;;;14.30;51.00;;;;;;5018053;28;20573;-63
2024/03/12 08:44:14;;;;;;;7.78;5.07;;;14.40;51.10;;;;;;5015236;28;20516;-58
2024/03/12 08:46:43;;;;;;;13.93;4.25;;;14.50;51.00;;;;;;5006572;28;20056;-63
2024/03/12 08:49:11;;;;;;;10.05;6.72;;;14.60;51.10;;;;;;5018094;28;20049;-58
2024/03/12 08:51:41;;;;;;;6.28;3.90;;;14.60;51.00;;;;;;5015416;28;20053;-59
2024/03/12 08:54:10;;;;;;;6.85;3.65;;;14.60;51.10;;;;;;5019281;28;20143;-59
2024/03/12 08:56:39;;;;;;;7.38;2.80;;;14.70;51.10;;;;;;5009663;28;20067;-59
2024/03/12 08:59:08;;;;;;;6.82;2.53;;;14.80;51.00;;;;;;5018742;28;20065;-58
2024/03/12 09:01:38;;;;;;;3.83;2.63;;;14.80;51.00;;;;;;5014838;28;20563;-59
2024/03/12 09:04:08;;;;;;;4.97;3.53;;;14.90;51.10;;;;;;5010443;28;20144;-58
2024/03/12 09:06:37;;;;;;;2.20;2.00;;;15.00;51.20;;;;;;5010784;28;20127;-58
2024/03/12 09:09:07;;;;;;;1.98;1.80;;;15.10;51.00;;;;;;5016490;28;20057;-57
2024/03/12 09:11:36;;;;;;;3.60;2.90;;;15.10;50.90;;;;;;5016970;28;20057;-59
2024/03/12 09:14:05;;;;;;;17.85;3.28;;;15.10;50.80;;;;;;5015994;28;20037;-61
2024/03/12 09:16:33;;;;;;;5.55;2.22;;;15.10;50.80;;;;;;5007957;28;20045;-59
2024/03/12 09:19:02;;;;;;;14.27;3.00;;;15.10;50.90;;;;;;5017441;28;20068;-59
2024/03/12 09:21:32;;;;;;;4.15;2.67;;;15.10;51.00;;;;;;5015843;28;20058;-61
2024/03/12 09:24:01;;;;;;;4.68;2.53;;;15.20;51.00;;;;;;5018970;28;20057;-57
2024/03/12 09:26:33;;;;;;;4.25;2.90;;;15.30;50.80;;;;;;5012618;28;20049;-58
2024/03/12 09:29:01;;;;;;;4.95;2.97;;;15.30;50.70;;;;;;5015688;28;20073;-59
2024/03/12 09:31:31;;;;;;;3.63;2.90;;;15.20;50.70;;;;;;5018426;28;20463;-58
2024/03/12 09:34:00;;;;;;;5.50;2.97;;;15.20;50.60;;;;;;5016467;28;20139;-59
2024/03/12 09:36:28;;;;;;;7.07;4.28;;;15.10;50.60;;;;;;5015357;28;20064;-58
2024/03/12 09:38:57;;;;;;;5.18;3.40;;;15.10;50.70;;;;;;5012301;28;20069;-56
2024/03/12 09:41:27;;;;;;;7.05;3.13;;;15.10;50.80;;;;;;5018590;28;20119;-61
2024/03/12 09:43:57;;;;;;;2.85;2.13;;;15.10;50.90;;;;;;5015968;28;20093;-57
2024/03/12 09:46:25;;;;;;;4.93;3.15;;;15.30;51.00;;;;;;5015342;28;20057;-59
2024/03/12 09:48:53;;;;;;;3.22;2.55;;;15.50;51.00;;;;;;5014056;28;20088;-61
2024/03/12 09:51:22;;;;;;;7.35;2.70;;;15.70;50.80;;;;;;5011930;28;20134;-61
2024/03/12 09:53:51;;;;;;;4.00;2.63;;;15.80;50.60;;;;;;5007103;28;20157;-60
2024/03/12 09:56:20;;;;;;;15.95;2.47;;;15.90;50.70;;;;;;5009214;28;20061;-63
2024/03/12 09:58:48;;;;;;;5.40;2.75;;;16.20;50.70;;;;;;5017645;28;20049;-60
2024/03/12 10:01:19;;;;;;;5.53;2.67;;;16.50;50.30;;;;;;5013843;28;20057;-56
2024/03/12 10:03:48;;;;;;;9.60;2.75;;;16.80;49.90;;;;;;5017729;28;20050;-60
2024/03/12 10:06:16;;;;;;;12.38;2.05;;;17.10;49.60;;;;;;5011349;28;20049;-60
2024/03/12 10:08:45;;;;;;;10.70;1.88;;;17.40;49.20;;;;;;5016251;28;20129;-59
2024/03/12 10:11:19;;;;;;;2.75;2.10;;;17.70;48.90;;;;;;5011755;28;20618;-55
2024/03/12 10:13:55;;;;;;;5.05;2.22;;;18.00;48.50;;;;;;5008647;28;20685;-58
2024/03/12 10:16:27;;;;;;;4.13;2.25;;;18.20;48.30;;;;;;5012994;28;20057;-59
2024/03/12 10:19:18;;;;;;;2.00;1.75;;;18.40;48.20;;;;;;5011068;28;20057;-59
2024/03/12 10:21:49;;;;;;;4.95;1.50;;;18.70;47.90;;;;;;5003239;28;20049;-60
2024/03/12 10:24:21;;;;;;;4.60;2.50;;;19.00;47.80;;;;;;5011026;28;20053;-60
2024/03/12 10:26:50;;;;;;;4.55;2.40;;;19.40;47.60;;;;;;5010486;28;20053;-59
2024/03/12 10:29:19;;;;;;;2.03;1.67;;;19.70;47.30;;;;;;5012246;28;20057;-59
2024/03/12 10:31:50;;;;;;;2.85;1.80;;;20.80;47.80;;;;;;5024028;28;20495;-58
2024/03/12 10:34:19;;;;;;;2.55;1.75;;;21.90;46.30;;;;;;5014146;28;20057;-57
2024/03/12 10:36:49;;;;;;;3.30;1.83;;;22.50;44.70;;;;;;5015142;28;20049;-58
2024/03/12 10:39:27;;;;;;;1.85;1.48;;;22.30;43.60;;;;;;5011489;28;20067;-60
2024/03/12 10:41:58;;;;;;;2.13;1.60;;;21.60;43.40;;;;;;5015176;28;20061;-61
2024/03/12 10:44:27;;;;;;;2.88;1.85;;;21.00;44.30;;;;;;5009426;28;20515;-60
2024/03/12 10:47:00;;;;;;;6.93;5.05;;;20.40;44.20;;;;;;5016434;28;20049;-60
2024/03/12 10:49:30;;;;;;;8.23;2.28;;;19.80;44.40;;;;;;5011253;28;20500;-59
2024/03/12 10:51:59;;;;;;;5.90;2.90;;;19.30;44.80;;;;;;5016177;28;20057;-59
2024/03/12 10:54:32;;;;;;;5.03;2.67;;;19.00;45.30;;;;;;5012998;28;20498;-60
2024/03/12 10:57:05;;;;;;;3.13;2.03;;;18.90;45.70;;;;;;5012879;28;20543;-59
2024/03/12 10:59:37;;;;;;;3.88;2.80;;;19.00;46.10;;;;;;5004534;28;20049;-60
2024/03/12 11:02:08;;;;;;;3.88;1.77;;;19.40;46.40;;;;;;5011431;28;20131;-58
2024/03/12 11:04:37;;;;;;;5.00;1.60;;;19.80;46.30;;;;;;5010570;28;20057;-61
2024/03/12 11:07:08;;;;;;;2.15;1.52;;;20.00;45.20;;;;;;5010582;28;20126;-59
2024/03/12 11:09:38;;;;;;;2.25;1.50;;;20.10;44.90;;;;;;5009886;28;20061;-59
2024/03/12 11:12:07;;;;;;;4.75;1.65;;;19.90;44.60;;;;;;5014852;28;20187;-60
2024/03/12 11:14:35;;;;;;;5.28;1.60;;;19.50;44.50;;;;;;5029590;28;20342;-60
2024/03/12 11:17:04;;;;;;;3.33;1.30;;;19.10;44.70;;;;;;5012534;28;20046;-60
2024/03/12 11:19:36;;;;;;;8.73;2.60;;;18.80;45.10;;;;;;5005253;28;20127;-62
2024/03/12 11:22:11;;;;;;;3.30;1.88;;;18.50;45.40;;;;;;5016868;28;20139;-59
2024/03/12 11:24:45;;;;;;;2.55;1.80;;;18.30;45.80;;;;;;5014024;28;20084;-60
2024/03/12 11:27:20;;;;;;;2.22;2.03;;;18.40;46.10;;;;;;5013266;28;20057;-62
2024/03/12 11:30:11;;;;;;;12.45;2.60;;;18.60;46.10;;;;;;5008100;28;20177;-60
2024/03/12 11:32:41;;;;;;;6.38;1.77;;;18.70;45.90;;;;;;5025641;28;20076;-62
2024/03/12 11:35:33;;;;;;;6.97;3.03;;;18.70;45.50;;;;;;5018290;28;20049;-61
2024/03/12 11:38:05;;;;;;;1.73;1.20;;;18.40;45.20;;;;;;5015527;28;20061;-60
2024/03/12 11:40:49;;;;;;;3.67;1.63;;;18.20;45.30;;;;;;5012343;28;20134;-58
2024/03/12 11:43:37;;;;;;;3.15;1.42;;;18.00;46.70;;;;;;5011063;28;20808;-63
2024/03/12 11:46:07;;;;;;;2.92;1.70;;;17.80;45.70;;;;;;5012758;28;20594;-61
2024/03/12 11:48:38;;;;;;;2.67;1.00;;;17.80;45.70;;;;;;5012202;28;20088;-62
2024/03/12 11:51:11;;;;;;;1.58;1.00;;;17.80;45.70;;;;;;5028268;28;20045;-64
2024/03/12 11:53:42;;;;;;;14.32;4.20;;;17.80;45.60;;;;;;5004608;28;20065;-60
2024/03/12 11:56:15;;;;;;;4.45;1.63;;;17.90;46.30;;;;;;5012171;28;20520;-64
2024/03/12 11:58:49;;;;;;;6.18;3.40;;;17.90;45.60;;;;;;5013681;28;20419;-60
2024/03/12 12:01:19;;;;;;;1.50;0.95;;;18.10;45.60;;;;;;5015656;28;20107;-62
2024/03/12 12:03:54;;;;;;;6.40;1.90;;;18.40;45.50;;;;;;5007292;28;20054;-59
2024/03/12 12:06:24;;;;;;;5.63;2.15;;;18.70;45.50;;;;;;5013630;28;20127;-58
2024/03/12 12:08:53;;;;;;;7.07;2.72;;;19.10;45.30;;;;;;5014460;28;20057;-60
2024/03/12 12:11:29;;;;;;;3.47;1.65;;;19.40;44.90;;;;;;5009456;28;20169;-60
2024/03/12 12:13:59;;;;;;;1.27;0.98;;;19.70;44.70;;;;;;5031647;28;20049;-60
2024/03/12 12:16:30;;;;;;;8.38;3.47;;;19.80;44.20;;;;;;5008671;28;20085;-60
2024/03/12 12:19:05;;;;;;;7.55;1.92;;;19.90;44.10;;;;;;5015737;28;20049;-59
2024/03/12 12:21:38;;;;;;;1.73;1.13;;;19.90;44.00;;;;;;5000726;28;20133;-60
2024/03/12 12:24:10;;;;;;;1.63;0.90;;;19.90;43.80;;;;;;5008548;28;20056;-59
2024/03/12 12:26:39;;;;;;;1.63;1.25;;;19.90;43.60;;;;;;5029825;28;20049;-60
2024/03/12 12:29:09;;;;;;;2.80;1.80;;;19.70;43.90;;;;;;5011955;28;20066;-60
2024/03/12 12:31:39;;;;;;;6.15;2.85;;;19.60;43.60;;;;;;5012172;28;20168;-59
2024/03/12 12:34:09;;;;;;;2.40;1.30;;;19.50;43.60;;;;;;5017849;28;20088;-59
2024/03/12 12:36:44;;;;;;;4.20;1.98;;;19.40;43.60;;;;;;5015314;28;20390;-60
2024/03/12 12:39:16;;;;;;;3.53;1.15;;;19.20;43.40;;;;;;5014041;28;20057;-59
2024/03/12 12:41:48;;;;;;;2.45;1.73;;;19.00;43.60;;;;;;5005594;28;20264;-60
2024/03/12 12:44:20;;;;;;;2.35;1.10;;;19.00;43.80;;;;;;5015068;28;20850;-61
2024/03/12 12:46:49;;;;;;;5.35;1.27;;;18.90;43.70;;;;;;5016275;28;20516;-59
2024/03/12 12:49:17;;;;;;;5.90;1.70;;;18.90;43.90;;;;;;5014184;28;20053;-59
2024/03/12 12:51:48;;;;;;;9.45;1.40;;;19.00;43.70;;;;;;5003290;28;20770;-60
2024/03/12 12:54:18;;;;;;;2.38;1.70;;;19.10;43.70;;;;;;5013647;28;20084;-59
2024/03/12 12:56:49;;;;;;;1.63;1.00;;;19.20;43.80;;;;;;5017085;28;20511;-59
2024/03/12 12:59:19;;;;;;;12.90;3.83;;;19.30;43.50;;;;;;5013785;28;20046;-60
2024/03/12 13:01:48;;;;;;;2.55;1.42;;;19.50;44.00;;;;;;5014817;28;20069;-60
2024/03/12 13:04:22;;;;;;;5.93;2.05;;;19.70;43.50;;;;;;5017486;28;20057;-59
2024/03/12 13:06:55;;;;;;;4.60;1.55;;;19.90;43.30;;;;;;5007534;28;20041;-59